createdAt,value
2023-01-17T00:02:26.952Z,47.13
2023-01-17T00:05:12.969Z,47.93
2023-01-17T00:07:59.149Z,48.31
2023-01-17T00:10:28.612Z,48.25
2023-01-17T00:13:02.594Z,48.92
2023-01-17T00:15:31.616Z,48.94
2023-01-17T00:17:59.980Z,48.66
2023-01-17T00:20:49.924Z,48.36
2023-01-17T00:23:43.264Z,48.97
2023-01-17T00:26:18.037Z,47.86
2023-01-17T00:28:46.245Z,47.30
2023-01-17T00:31:16.437Z,47.17
2023-01-17T00:33:44.271Z,47.32
2023-01-17T00:36:12.273Z,47.19
2023-01-17T00:38:40.662Z,47.27
2023-01-17T00:41:11.793Z,47.56
2023-01-17T00:43:58.970Z,47.72
2023-01-17T00:46:45.759Z,47.76
2023-01-17T00:49:31.846Z,47.32
2023-01-17T00:52:19.225Z,47.09
2023-01-17T00:55:05.319Z,48.07
2023-01-17T00:57:51.354Z,47.86
2023-01-17T01:00:38.120Z,48.70
2023-01-17T01:03:29.759Z,48.16
2023-01-17T01:06:15.873Z,47.36
2023-01-17T01:09:02.081Z,47.92
2023-01-17T01:11:48.180Z,47.32
2023-01-17T01:14:53.089Z,47.52
2023-01-17T01:17:38.976Z,47.72
2023-01-17T01:20:43.549Z,47.76
2023-01-17T01:23:29.744Z,48.12
2023-01-17T01:26:15.881Z,47.63
2023-01-17T01:29:01.967Z,46.97
2023-01-17T01:31:48.281Z,45.38
2023-01-17T01:34:16.039Z,45.62
2023-01-17T01:36:43.727Z,45.68
2023-01-17T01:39:11.408Z,45.42
2023-01-17T01:41:38.961Z,46.11
2023-01-17T01:44:48.902Z,45.90
2023-01-17T01:47:33.906Z,47.00
2023-01-17T01:50:07.188Z,47.04
2023-01-17T01:52:39.226Z,46.55
2023-01-17T01:55:23.921Z,47.32
2023-01-17T01:57:57.357Z,47.53
2023-01-17T02:00:30.660Z,45.81
2023-01-17T02:03:02.463Z,45.88
2023-01-17T02:05:31.435Z,46.81
2023-01-17T02:08:06.054Z,47.15
2023-01-17T02:10:36.080Z,48.06
2023-01-17T02:13:04.704Z,48.07
2023-01-17T02:16:04.236Z,50.07
2023-01-17T02:18:48.185Z,48.88
2023-01-17T02:21:25.144Z,49.33
2023-01-17T02:24:38.191Z,49.33
2023-01-17T02:27:44.573Z,51.18
2023-01-17T02:30:36.205Z,51.12
2023-01-17T02:33:51.137Z,50.77
2023-01-17T02:36:49.751Z,52.77
2023-01-17T02:39:30.049Z,53.47
2023-01-17T02:42:05.106Z,53.84
2023-01-17T02:44:41.770Z,53.70
2023-01-17T02:47:30.290Z,53.83
2023-01-17T02:50:12.239Z,54.49
2023-01-17T02:53:29.707Z,53.61
2023-01-17T02:56:24.101Z,53.97
2023-01-17T02:59:03.649Z,53.87
2023-01-17T03:01:57.021Z,56.51
2023-01-17T03:04:38.861Z,56.70
2023-01-17T03:07:16.303Z,56.19
2023-01-17T03:09:46.528Z,56.40
2023-01-17T03:12:14.561Z,57.99
2023-01-17T03:14:42.215Z,57.05
2023-01-17T03:17:09.823Z,58.15
2023-01-17T03:19:37.421Z,57.80
2023-01-17T03:22:05.003Z,56.39
2023-01-17T03:24:32.573Z,55.42
2023-01-17T03:27:00.281Z,54.36
2023-01-17T03:29:27.851Z,54.99
2023-01-17T03:31:55.487Z,56.73
2023-01-17T03:34:23.381Z,55.29
2023-01-17T03:36:50.989Z,56.43
2023-01-17T03:39:18.515Z,55.11
2023-01-17T03:41:46.160Z,55.07
2023-01-17T03:44:13.722Z,56.78
2023-01-17T03:46:41.325Z,57.24
2023-01-17T03:49:09.716Z,56.38
2023-01-17T03:51:37.323Z,56.53
2023-01-17T03:54:05.379Z,56.47
2023-01-17T03:56:33.017Z,57.45
2023-01-17T03:59:00.675Z,55.90
2023-01-17T04:01:28.384Z,56.57
2023-01-17T04:03:56.065Z,58.27
2023-01-17T04:06:23.695Z,58.38
2023-01-17T04:08:51.257Z,57.73
2023-01-17T04:11:18.940Z,57.42
2023-01-17T04:13:46.698Z,58.75
2023-01-17T04:16:17.623Z,59.18
2023-01-17T04:18:45.393Z,59.78
2023-01-17T04:21:12.941Z,59.74
2023-01-17T04:23:40.551Z,61.44
2023-01-17T04:26:09.647Z,61.20
2023-01-17T04:28:37.214Z,60.57
2023-01-17T04:31:04.811Z,61.32
2023-01-17T04:33:32.492Z,62.88
2023-01-17T04:36:00.048Z,62.04
2023-01-17T04:38:27.620Z,62.19
2023-01-17T04:40:55.160Z,60.44
2023-01-17T04:43:22.709Z,61.90
2023-01-17T04:45:56.343Z,61.46
2023-01-17T04:48:24.490Z,60.37
2023-01-17T04:50:52.075Z,60.94
2023-01-17T04:53:19.631Z,61.85
2023-01-17T04:55:47.260Z,61.90
2023-01-17T04:58:14.795Z,62.99
2023-01-17T05:00:42.451Z,62.94
2023-01-17T05:03:10.364Z,64.10
2023-01-17T05:05:37.877Z,63.29
2023-01-17T05:08:05.564Z,63.79
2023-01-17T05:10:33.099Z,63.63
2023-01-17T05:13:00.758Z,62.40
2023-01-17T05:15:29.442Z,63.26
2023-01-17T05:17:57.293Z,63.80
2023-01-17T05:20:27.015Z,64.64
2023-01-17T05:22:56.911Z,64.74
2023-01-17T05:25:27.708Z,64.00
2023-01-17T05:27:55.825Z,64.09
2023-01-17T05:30:23.457Z,64.88
2023-01-17T05:32:53.450Z,64.82
2023-01-17T05:35:25.607Z,64.97
2023-01-17T05:37:53.260Z,63.54
2023-01-17T05:40:25.912Z,64.00
2023-01-17T05:42:57.067Z,62.71
2023-01-17T05:45:28.519Z,61.76
2023-01-17T05:47:58.327Z,62.55
2023-01-17T05:50:30.450Z,62.09
2023-01-17T05:53:05.978Z,62.53
2023-01-17T05:55:34.323Z,60.20
2023-01-17T05:58:03.204Z,59.64
2023-01-17T06:00:31.797Z,58.40
2023-01-17T06:03:00.848Z,59.09
2023-01-17T06:05:29.416Z,59.21
2023-01-17T06:07:57.814Z,59.09
2023-01-17T06:10:26.970Z,58.01
2023-01-17T06:13:10.374Z,55.76
2023-01-17T06:15:39.119Z,55.71
2023-01-17T06:18:09.356Z,57.02
2023-01-17T06:20:38.039Z,58.47
2023-01-17T06:23:09.652Z,57.70
2023-01-17T06:25:45.857Z,58.47
2023-01-17T06:28:16.812Z,58.92
2023-01-17T06:30:45.297Z,57.44
2023-01-17T06:33:13.750Z,58.73
2023-01-17T06:35:51.677Z,57.37
2023-01-17T06:38:19.657Z,55.70
2023-01-17T06:40:47.480Z,56.98
2023-01-17T06:43:15.238Z,58.06
2023-01-17T06:45:42.823Z,56.95
2023-01-17T06:48:10.470Z,57.90
2023-01-17T06:50:38.355Z,58.60
2023-01-17T06:53:07.206Z,57.45
2023-01-17T06:55:37.254Z,56.80
2023-01-17T06:58:04.985Z,55.87
2023-01-17T07:00:35.084Z,55.51
2023-01-17T07:03:03.334Z,55.87
2023-01-17T07:05:31.215Z,55.83
2023-01-17T07:07:58.840Z,56.70
2023-01-17T07:10:26.383Z,58.81
2023-01-17T07:13:00.636Z,57.31
2023-01-17T07:15:28.426Z,58.11
2023-01-17T07:17:55.941Z,57.88
2023-01-17T07:20:23.583Z,58.30
2023-01-17T07:22:51.117Z,59.87
2023-01-17T07:25:20.062Z,58.85
2023-01-17T07:27:47.819Z,58.56
2023-01-17T07:30:16.066Z,57.34
2023-01-17T07:32:43.654Z,59.19
2023-01-17T07:35:11.292Z,60.76
2023-01-17T07:37:39.095Z,60.77
2023-01-17T07:40:07.372Z,59.26
2023-01-17T07:42:35.003Z,58.75
2023-01-17T07:45:02.572Z,59.03
2023-01-17T07:47:30.124Z,58.97
2023-01-17T07:49:57.768Z,59.65
2023-01-17T07:52:25.318Z,60.98
2023-01-17T07:54:52.954Z,60.81
2023-01-17T07:57:20.817Z,61.03
2023-01-17T07:59:50.873Z,59.89
2023-01-17T08:02:22.230Z,58.92
2023-01-17T08:04:50.122Z,58.84
2023-01-17T08:07:17.866Z,59.05
2023-01-17T08:09:49.719Z,58.93
2023-01-17T08:12:17.819Z,59.88
2023-01-17T08:14:45.430Z,60.97
2023-01-17T08:17:16.749Z,58.97
2023-01-17T08:19:44.917Z,57.74
2023-01-17T08:22:12.567Z,58.89
2023-01-17T08:24:40.212Z,59.53
2023-01-17T08:27:08.971Z,58.85
2023-01-17T08:29:36.979Z,58.87
2023-01-17T08:32:04.744Z,60.50
2023-01-17T08:34:33.493Z,61.55
2023-01-17T08:37:01.078Z,62.63
2023-01-17T08:39:28.767Z,64.26
2023-01-17T08:41:57.387Z,65.70
2023-01-17T08:44:25.080Z,65.78
2023-01-17T08:46:52.839Z,65.23
2023-01-17T08:49:20.619Z,65.48
2023-01-17T08:51:48.200Z,66.20
2023-01-17T08:54:16.596Z,65.79
2023-01-17T08:56:44.204Z,67.25
2023-01-17T08:59:12.116Z,67.57
2023-01-17T09:01:45.882Z,67.38
2023-01-17T09:04:17.465Z,66.08
2023-01-17T09:06:47.282Z,64.16
2023-01-17T09:09:17.056Z,64.51
2023-01-17T09:11:44.688Z,64.40
2023-01-17T09:14:13.607Z,64.24
2023-01-17T09:16:41.356Z,65.48
2023-01-17T09:19:09.344Z,66.05
2023-01-17T09:21:36.988Z,65.41
2023-01-17T09:24:04.573Z,65.35
2023-01-17T09:26:32.780Z,65.16
2023-01-17T09:29:00.435Z,63.72
2023-01-17T09:31:28.523Z,64.39
2023-01-17T09:33:57.794Z,64.48
2023-01-17T09:36:33.691Z,62.92
2023-01-17T09:39:02.912Z,62.31
2023-01-17T09:42:07.860Z,61.42
2023-01-17T09:44:46.797Z,62.32
2023-01-17T09:47:33.082Z,63.82
2023-01-17T09:50:25.242Z,66.82
2023-01-17T09:53:02.486Z,68.63
2023-01-17T09:55:58.037Z,69.14
2023-01-17T09:59:01.436Z,69.27
2023-01-17T10:01:41.096Z,69.91
2023-01-17T10:04:41.252Z,68.26
2023-01-17T10:07:51.552Z,68.92
2023-01-17T10:10:26.990Z,68.95
2023-01-17T10:13:34.867Z,69.73
2023-01-17T10:16:31.636Z,72.24
2023-01-17T10:19:35.547Z,71.57
2023-01-17T10:22:49.390Z,72.92
2023-01-17T10:25:52.290Z,71.71
2023-01-17T10:28:41.834Z,72.25
2023-01-17T10:31:18.562Z,71.67
2023-01-17T10:34:03.710Z,71.08
2023-01-17T10:36:39.512Z,71.22
2023-01-17T10:39:25.308Z,70.56
2023-01-17T10:42:01.862Z,69.93
2023-01-17T10:44:43.079Z,70.27
2023-01-17T10:47:10.521Z,69.45
2023-01-17T10:49:46.321Z,70.54
2023-01-17T10:53:21.563Z,70.00
2023-01-17T10:55:56.007Z,68.33
2023-01-17T10:58:25.210Z,67.95
2023-01-17T11:01:02.065Z,67.21
2023-01-17T11:03:31.003Z,66.38
2023-01-17T11:06:23.607Z,66.94
2023-01-17T11:08:52.556Z,65.88
2023-01-17T11:11:25.213Z,62.92
2023-01-17T11:13:55.128Z,63.30
2023-01-17T11:16:28.665Z,63.33
2023-01-17T11:19:30.366Z,62.67
2023-01-17T11:22:06.594Z,62.59
2023-01-17T11:24:54.989Z,62.98
2023-01-17T11:27:34.617Z,63.99
2023-01-17T11:30:18.233Z,63.26
2023-01-17T11:33:06.201Z,60.83
2023-01-17T11:35:37.199Z,61.06
2023-01-17T11:38:06.410Z,60.41
2023-01-17T11:40:42.837Z,60.00
2023-01-17T11:43:18.518Z,59.73
2023-01-17T11:46:14.127Z,57.19
2023-01-17T11:48:41.956Z,58.09
2023-01-17T11:51:26.977Z,58.70
2023-01-17T11:54:05.753Z,56.61
2023-01-17T11:56:36.735Z,57.59
2023-01-17T11:59:31.596Z,58.61
2023-01-17T12:02:34.002Z,57.53
2023-01-17T12:05:40.315Z,59.71
2023-01-17T12:08:51.168Z,59.34
2023-01-17T12:12:20.587Z,60.55
2023-01-17T12:15:03.572Z,59.20
2023-01-17T12:18:06.031Z,59.89
2023-01-17T12:21:17.393Z,58.65
2023-01-17T12:24:03.208Z,60.15
2023-01-17T12:26:50.200Z,58.18
2023-01-17T12:29:38.974Z,57.06
2023-01-17T12:32:12.613Z,55.85
2023-01-17T12:35:06.074Z,57.50
2023-01-17T12:37:40.940Z,57.88
2023-01-17T12:40:36.568Z,57.60
2023-01-17T12:43:27.332Z,56.83
2023-01-17T12:45:55.089Z,55.58
2023-01-17T12:48:27.586Z,56.99
2023-01-17T12:51:18.426Z,58.40
2023-01-17T12:54:02.294Z,58.79
2023-01-17T12:56:43.730Z,57.53
2023-01-17T12:59:29.809Z,56.87
2023-01-17T13:02:01.427Z,56.97
2023-01-17T13:04:58.475Z,57.83
2023-01-17T13:07:45.865Z,57.19
2023-01-17T13:10:39.704Z,55.56
2023-01-17T13:13:28.230Z,53.84
2023-01-17T13:16:13.388Z,54.68
2023-01-17T13:18:47.462Z,54.92
2023-01-17T13:21:31.229Z,54.94
2023-01-17T13:24:07.541Z,55.42
2023-01-17T13:27:18.680Z,55.46
2023-01-17T13:30:11.143Z,55.92
2023-01-17T13:33:29.746Z,52.67
2023-01-17T13:36:12.460Z,53.16
2023-01-17T13:39:00.109Z,51.69
2023-01-17T13:42:02.933Z,51.35
2023-01-17T13:44:31.888Z,51.33
2023-01-17T13:47:17.775Z,52.22
2023-01-17T13:49:51.417Z,50.21
2023-01-17T13:52:18.939Z,47.37
2023-01-17T13:54:53.878Z,48.74
2023-01-17T13:57:34.685Z,48.89
2023-01-17T14:00:21.315Z,49.17
2023-01-17T14:02:51.539Z,49.71
2023-01-17T14:05:42.005Z,50.13
2023-01-17T14:08:17.937Z,49.74
2023-01-17T14:10:53.630Z,49.68
2023-01-17T14:13:40.067Z,49.71
2023-01-17T14:16:22.657Z,50.79
2023-01-17T14:18:50.537Z,49.45
2023-01-17T14:21:35.536Z,50.06
2023-01-17T14:24:18.272Z,49.80
2023-01-17T14:26:50.887Z,47.54
2023-01-17T14:29:58.611Z,46.05
2023-01-17T14:32:31.506Z,44.97
2023-01-17T14:34:59.583Z,45.10
2023-01-17T14:37:33.589Z,44.75
2023-01-17T14:40:02.029Z,48.50
2023-01-17T14:42:31.623Z,48.97
2023-01-17T14:45:09.032Z,49.35
2023-01-17T14:47:39.523Z,48.68
2023-01-17T14:50:40.233Z,48.69
2023-01-17T14:53:43.550Z,51.02
2023-01-17T14:56:19.518Z,50.06
2023-01-17T14:58:47.217Z,49.66
2023-01-17T15:01:19.995Z,49.68
2023-01-17T15:03:55.015Z,48.37
2023-01-17T15:06:39.229Z,47.39
2023-01-17T15:09:19.512Z,48.10
2023-01-17T15:11:50.011Z,48.61
2023-01-17T15:14:24.169Z,49.42
2023-01-17T15:16:52.102Z,50.60
2023-01-17T15:19:21.755Z,50.65
2023-01-17T15:21:53.342Z,50.54
2023-01-17T15:24:34.319Z,50.24
2023-01-17T15:27:04.275Z,50.12
2023-01-17T15:29:34.527Z,50.24
2023-01-17T15:32:05.996Z,51.12
2023-01-17T15:34:37.440Z,51.31
2023-01-17T15:37:24.389Z,51.25
2023-01-17T15:39:52.179Z,50.65
2023-01-17T15:42:26.940Z,47.22
2023-01-17T15:44:57.958Z,45.55
2023-01-17T15:47:33.958Z,45.07
2023-01-17T15:50:25.593Z,43.56
2023-01-17T15:52:55.522Z,43.24
2023-01-17T15:55:38.523Z,43.30
2023-01-17T15:58:25.824Z,43.29
2023-01-17T16:00:54.196Z,42.86
2023-01-17T16:03:26.877Z,42.58
2023-01-17T16:05:57.815Z,42.29
2023-01-17T16:08:39.357Z,42.44
2023-01-17T16:11:11.290Z,42.96
2023-01-17T16:13:42.037Z,42.42
2023-01-17T16:16:21.280Z,43.09
2023-01-17T16:18:55.369Z,42.19
2023-01-17T16:21:26.786Z,42.43
2023-01-17T16:23:54.963Z,42.85
2023-01-17T16:26:23.550Z,42.47
2023-01-17T16:28:51.848Z,42.58
2023-01-17T16:31:19.786Z,42.86
2023-01-17T16:33:50.506Z,43.13
2023-01-17T16:36:20.753Z,42.94
2023-01-17T16:38:51.459Z,43.21
2023-01-17T16:41:20.678Z,42.86
2023-01-17T16:44:01.798Z,43.09
2023-01-17T16:46:30.113Z,43.47
2023-01-17T16:49:00.710Z,43.38
2023-01-17T16:51:28.407Z,43.39
2023-01-17T16:53:56.054Z,42.54
2023-01-17T16:56:23.934Z,42.61
2023-01-17T16:58:53.145Z,42.65
2023-01-17T17:01:22.545Z,41.89
2023-01-17T17:03:50.642Z,42.34
2023-01-17T17:06:18.380Z,42.44
2023-01-17T17:08:46.103Z,42.54
2023-01-17T17:11:19.996Z,42.54
2023-01-17T17:13:50.139Z,42.94
2023-01-17T17:16:30.350Z,43.55
2023-01-17T17:19:01.997Z,43.68
2023-01-17T17:21:31.736Z,44.00
2023-01-17T17:24:00.947Z,43.91
2023-01-17T17:26:35.894Z,44.06
2023-01-17T17:29:07.228Z,44.35
2023-01-17T17:31:42.102Z,44.77
2023-01-17T17:34:13.117Z,44.96
2023-01-17T17:36:40.840Z,45.76
2023-01-17T17:39:14.702Z,46.07
2023-01-17T17:41:45.337Z,45.85
2023-01-17T17:44:14.307Z,45.65
2023-01-17T17:46:42.950Z,45.61
2023-01-17T17:49:10.673Z,46.45
2023-01-17T17:51:39.917Z,46.44
2023-01-17T17:54:11.758Z,46.95
2023-01-17T17:56:40.555Z,46.60
2023-01-17T17:59:09.694Z,46.39
2023-01-17T18:01:40.995Z,46.17
2023-01-17T18:04:09.277Z,46.18
2023-01-17T18:06:38.564Z,45.75
2023-01-17T18:09:09.651Z,45.79
2023-01-17T18:11:40.459Z,45.91
2023-01-17T18:14:14.237Z,46.49
2023-01-17T18:16:44.808Z,46.40
2023-01-17T18:19:20.900Z,45.29
2023-01-17T18:21:50.328Z,44.57
2023-01-17T18:24:22.350Z,45.08
2023-01-17T18:26:57.217Z,44.48
2023-01-17T18:29:27.397Z,44.40
2023-01-17T18:31:55.752Z,44.71
2023-01-17T18:34:29.292Z,44.35
2023-01-17T18:36:57.875Z,44.43
2023-01-17T18:39:29.761Z,44.50
2023-01-17T18:41:58.347Z,44.39
2023-01-17T18:44:27.325Z,44.73
2023-01-17T18:46:55.564Z,45.83
2023-01-17T18:49:23.266Z,48.63
2023-01-17T18:51:51.613Z,51.16
2023-01-17T18:54:20.402Z,52.47
2023-01-17T18:56:48.137Z,48.80
2023-01-17T18:59:18.182Z,46.42
2023-01-17T19:01:46.490Z,45.75
2023-01-17T19:04:16.289Z,45.69
2023-01-17T19:06:47.537Z,45.80
2023-01-17T19:09:17.000Z,45.38
2023-01-17T19:11:46.244Z,44.84
2023-01-17T19:14:15.870Z,46.89
2023-01-17T19:16:43.617Z,49.11
2023-01-17T19:19:15.706Z,49.74
2023-01-17T19:21:43.970Z,46.43
2023-01-17T19:24:13.043Z,45.74
2023-01-17T19:26:42.730Z,45.68
2023-01-17T19:29:10.432Z,47.36
2023-01-17T19:31:42.389Z,47.71
2023-01-17T19:34:13.718Z,48.91
2023-01-17T19:36:41.693Z,47.72
2023-01-17T19:39:10.987Z,45.85
2023-01-17T19:41:44.788Z,45.34
2023-01-17T19:44:14.629Z,45.50
2023-01-17T19:46:43.771Z,45.58
2023-01-17T19:49:11.570Z,45.26
2023-01-17T19:51:39.725Z,45.95
2023-01-17T19:54:08.277Z,45.98
2023-01-17T19:56:36.099Z,47.75
2023-01-17T19:59:03.777Z,47.02
2023-01-17T20:01:33.450Z,46.54
2023-01-17T20:04:02.807Z,46.45
2023-01-17T20:06:34.240Z,47.71
2023-01-17T20:09:02.510Z,46.91
2023-01-17T20:11:30.199Z,46.89
2023-01-17T20:13:59.068Z,46.86
2023-01-17T20:16:36.529Z,46.59
2023-01-17T20:19:04.592Z,46.28
2023-01-17T20:21:32.782Z,46.29
2023-01-17T20:24:03.200Z,46.33
2023-01-17T20:26:36.876Z,47.87
2023-01-17T20:29:10.375Z,48.69
2023-01-17T20:31:40.645Z,47.18
2023-01-17T20:34:11.425Z,46.92
2023-01-17T20:36:41.596Z,49.32
2023-01-17T20:39:13.381Z,48.44
2023-01-17T20:41:43.421Z,47.03
2023-01-17T20:44:15.211Z,46.81
2023-01-17T20:46:44.189Z,46.31
2023-01-17T20:49:19.315Z,46.37
2023-01-17T20:51:47.578Z,46.27
2023-01-17T20:54:18.848Z,45.59
2023-01-17T20:56:47.732Z,45.63
2023-01-17T20:59:18.876Z,45.91
2023-01-17T21:01:47.238Z,46.21
2023-01-17T21:04:15.105Z,46.62
2023-01-17T21:06:44.159Z,46.78
2023-01-17T21:09:15.021Z,46.43
2023-01-17T21:11:43.360Z,46.56
2023-01-17T21:14:11.120Z,46.71
2023-01-17T21:16:39.633Z,46.86
2023-01-17T21:19:11.701Z,47.08
2023-01-17T21:21:39.360Z,47.12
2023-01-17T21:24:07.116Z,47.03
2023-01-17T21:26:34.860Z,47.65
2023-01-17T21:29:03.616Z,47.74
2023-01-17T21:31:34.707Z,47.53
2023-01-17T21:34:08.711Z,47.89
2023-01-17T21:36:40.238Z,48.39
2023-01-17T21:39:18.395Z,48.05
2023-01-17T21:41:49.562Z,48.70
2023-01-17T21:44:21.577Z,48.74
2023-01-17T21:46:54.296Z,49.21
2023-01-17T21:49:23.760Z,48.13
2023-01-17T21:51:53.979Z,47.69
2023-01-17T21:54:45.771Z,47.35
2023-01-17T21:57:36.891Z,47.41
2023-01-17T22:00:09.040Z,47.64
2023-01-17T22:02:40.806Z,47.90
2023-01-17T22:05:10.303Z,47.59
2023-01-17T22:07:39.019Z,47.14
2023-01-17T22:10:07.539Z,47.22
2023-01-17T22:12:35.295Z,47.08
2023-01-17T22:15:04.061Z,47.02
2023-01-17T22:17:31.879Z,47.49
2023-01-17T22:19:59.403Z,47.91
2023-01-17T22:22:26.987Z,47.51
2023-01-17T22:24:54.545Z,47.33
2023-01-17T22:27:22.205Z,47.53
2023-01-17T22:29:49.788Z,48.65
2023-01-17T22:32:17.388Z,50.73
2023-01-17T22:34:44.968Z,52.14
2023-01-17T22:37:12.648Z,53.57
2023-01-17T22:39:40.238Z,55.79
2023-01-17T22:42:08.351Z,53.90
2023-01-17T22:44:35.999Z,50.54
2023-01-17T22:47:03.812Z,49.15
2023-01-17T22:49:31.810Z,48.80
2023-01-17T22:51:59.570Z,48.07
2023-01-17T22:54:27.116Z,47.95
2023-01-17T22:56:54.733Z,48.94
2023-01-17T22:59:22.476Z,48.47
2023-01-17T23:01:50.049Z,47.61
2023-01-17T23:04:17.652Z,47.66
2023-01-17T23:06:45.316Z,47.63
2023-01-17T23:09:17.116Z,47.42
2023-01-17T23:11:50.606Z,47.18
2023-01-17T23:14:25.984Z,47.40
2023-01-17T23:17:14.953Z,47.41
2023-01-17T23:19:52.418Z,47.70
2023-01-17T23:22:26.990Z,47.24
2023-01-17T23:25:00.630Z,47.21
2023-01-17T23:27:48.181Z,47.33
2023-01-17T23:30:34.572Z,48.39
2023-01-17T23:33:08.510Z,49.64
2023-01-17T23:35:41.653Z,50.31
2023-01-17T23:38:28.704Z,49.92
2023-01-17T23:41:25.472Z,51.20
2023-01-17T23:43:58.254Z,53.41
2023-01-17T23:46:27.260Z,54.23
2023-01-17T23:48:55.213Z,56.41
2023-01-17T23:51:23.075Z,56.13
2023-01-17T23:53:55.122Z,52.56
2023-01-17T23:56:24.685Z,51.27
2023-01-17T23:58:52.296Z,49.29
